createdAt,value
2018-02-21T00:01:06.129Z,42.92
2018-02-21T00:03:33.686Z,41.78
2018-02-21T00:06:01.253Z,44.25
2018-02-21T00:08:28.794Z,43.33
2018-02-21T00:10:56.364Z,42.13
2018-02-21T00:13:23.924Z,44.70
2018-02-21T00:15:52.584Z,44.40
2018-02-21T00:18:20.128Z,44.88
2018-02-21T00:20:48.426Z,45.22
2018-02-21T00:23:17.913Z,42.05
2018-02-21T00:25:45.940Z,45.35
2018-02-21T00:28:13.533Z,44.65
2018-02-21T00:30:41.084Z,43.95
2018-02-21T00:33:08.658Z,45.45
2018-02-21T00:35:36.963Z,47.88
2018-02-21T00:38:04.556Z,47.47
2018-02-21T00:40:32.101Z,45.72
2018-02-21T00:42:59.634Z,45.35
2018-02-21T00:45:27.203Z,47.80
2018-02-21T00:47:54.755Z,46.25
2018-02-21T00:50:22.326Z,45.55
2018-02-21T00:52:49.876Z,50.42
2018-02-21T00:55:18.017Z,46.37
2018-02-21T00:57:46.884Z,46.33
2018-02-21T01:00:14.488Z,47.05
2018-02-21T01:02:42.820Z,49.78
2018-02-21T01:05:10.398Z,45.22
2018-02-21T01:07:38.700Z,47.42
2018-02-21T01:10:06.680Z,47.85
2018-02-21T01:12:34.261Z,41.53
2018-02-21T01:15:02.570Z,41.35
2018-02-21T01:17:30.169Z,44.22
2018-02-21T01:19:58.790Z,43.03
2018-02-21T01:22:26.342Z,46.40
2018-02-21T01:24:53.913Z,48.53
2018-02-21T01:27:22.219Z,43.85
2018-02-21T01:29:49.805Z,42.65
2018-02-21T01:32:18.380Z,44.95
2018-02-21T01:34:47.330Z,46.53
2018-02-21T01:37:16.404Z,49.13
2018-02-21T01:39:43.962Z,49.60
2018-02-21T01:42:11.483Z,52.17
2018-02-21T01:44:39.066Z,50.97
2018-02-21T01:47:06.621Z,49.72
2018-02-21T01:49:34.941Z,46.60
2018-02-21T01:52:02.476Z,47.45
2018-02-21T01:54:30.052Z,51.67
2018-02-21T01:56:57.620Z,50.33
2018-02-21T01:59:25.972Z,50.55
2018-02-21T02:01:53.507Z,52.17
2018-02-21T02:04:21.067Z,49.90
2018-02-21T02:06:49.406Z,55.40
2018-02-21T02:09:17.779Z,49.60
2018-02-21T02:11:47.125Z,51.10
2018-02-21T02:14:14.675Z,53.35
2018-02-21T02:16:42.260Z,52.25
2018-02-21T02:19:10.563Z,51.90
2018-02-21T02:21:38.126Z,54.70
2018-02-21T02:24:05.808Z,52.38
2018-02-21T02:26:33.428Z,55.83
2018-02-21T02:29:00.958Z,54.22
2018-02-21T02:31:28.528Z,55.22
2018-02-21T02:33:56.097Z,49.75
2018-02-21T02:36:24.458Z,51.63
2018-02-21T02:39:04.469Z,50.47
2018-02-21T02:41:32.044Z,50.10
2018-02-21T02:44:00.344Z,47.35
2018-02-21T02:46:27.926Z,50.55
2018-02-21T02:48:55.499Z,53.42
2018-02-21T02:51:23.045Z,52.95
2018-02-21T02:53:50.624Z,45.03
2018-02-21T02:56:18.188Z,48.97
2018-02-21T02:58:46.798Z,52.88
2018-02-21T03:01:14.345Z,54.30
2018-02-21T03:03:41.904Z,52.58
2018-02-21T03:06:09.457Z,51.97
2018-02-21T03:08:38.017Z,49.50
2018-02-21T03:11:05.570Z,49.67
2018-02-21T03:13:33.134Z,50.55
2018-02-21T03:16:00.683Z,51.55
2018-02-21T03:18:29.023Z,50.92
2018-02-21T03:20:56.572Z,48.20
2018-02-21T03:23:24.459Z,51.45
2018-02-21T03:25:52.769Z,52.75
2018-02-21T03:28:20.311Z,48.70
2018-02-21T03:30:48.019Z,50.12
2018-02-21T03:33:15.958Z,49.03
2018-02-21T03:35:43.511Z,49.50
2018-02-21T03:38:11.088Z,50.08
2018-02-21T03:40:38.634Z,50.67
2018-02-21T03:43:06.523Z,48.65
2018-02-21T03:45:34.103Z,49.40
2018-02-21T03:48:02.416Z,50.65
2018-02-21T03:50:30.017Z,46.85
2018-02-21T03:52:58.322Z,47.50
2018-02-21T03:55:26.196Z,46.55
2018-02-21T03:57:53.734Z,47.35
2018-02-21T04:00:21.635Z,43.10
2018-02-21T04:02:50.960Z,44.42
2018-02-21T04:05:18.866Z,41.97
2018-02-21T04:07:47.676Z,44.00
2018-02-21T04:10:15.857Z,44.85
2018-02-21T04:12:43.400Z,46.50
2018-02-21T04:15:11.001Z,48.83
2018-02-21T04:17:38.558Z,46.83
2018-02-21T04:20:06.469Z,39.28
2018-02-21T04:22:35.730Z,43.97
2018-02-21T04:25:03.303Z,44.00
2018-02-21T04:27:31.644Z,41.95
2018-02-21T04:29:59.221Z,44.38
2018-02-21T04:32:27.715Z,42.90
2018-02-21T04:34:55.315Z,41.17
2018-02-21T04:37:22.884Z,46.10
2018-02-21T04:39:50.448Z,42.10
2018-02-21T04:42:18.203Z,39.55
2018-02-21T04:44:47.823Z,43.42
2018-02-21T04:47:15.884Z,41.85
2018-02-21T04:49:44.226Z,37.70
2018-02-21T04:52:12.225Z,40.97
2018-02-21T04:58:03.738Z,32.35
2018-02-21T05:00:31.292Z,37.38
2018-02-21T05:02:58.886Z,33.55
2018-02-21T05:05:27.430Z,37.60
2018-02-21T05:07:55.055Z,37.83
2018-02-21T05:10:22.609Z,38.28
2018-02-21T05:12:50.133Z,35.38
2018-02-21T05:15:18.222Z,38.35
2018-02-21T05:17:48.299Z,36.83
2018-02-21T05:20:16.534Z,38.92
2018-02-21T05:22:44.098Z,38.22
2018-02-21T05:25:11.645Z,39.20
2018-02-21T05:27:39.178Z,39.97
2018-02-21T05:30:06.776Z,40.20
2018-02-21T05:32:35.834Z,40.08
2018-02-21T05:35:03.467Z,38.28
2018-02-21T05:37:31.787Z,42.20
2018-02-21T05:40:00.129Z,40.47
2018-02-21T05:42:27.730Z,41.35
2018-02-21T05:44:55.379Z,42.90
2018-02-21T05:47:23.758Z,41.75
2018-02-21T05:49:52.139Z,41.90
2018-02-21T05:52:20.763Z,43.50
2018-02-21T05:54:48.536Z,44.13
2018-02-21T05:57:16.991Z,44.60
2018-02-21T05:59:46.128Z,50.40
2018-02-21T06:02:13.849Z,43.95
2018-02-21T06:04:42.263Z,45.55
2018-02-21T06:07:10.649Z,45.75
2018-02-21T06:09:38.992Z,47.88
2018-02-21T06:12:06.610Z,44.95
2018-02-21T06:14:35.954Z,46.72
2018-02-21T06:17:03.657Z,47.15
2018-02-21T06:19:31.213Z,47.13
2018-02-21T06:21:58.797Z,48.80
2018-02-21T06:24:26.369Z,47.45
2018-02-21T06:26:54.352Z,47.30
2018-02-21T06:29:22.671Z,49.25
2018-02-21T06:31:51.274Z,44.47
2018-02-21T06:34:18.867Z,47.70
2018-02-21T06:36:48.394Z,49.78
2018-02-21T06:39:17.614Z,40.70
2018-02-21T06:41:46.851Z,49.22
2018-02-21T06:44:15.863Z,49.15
2018-02-21T06:46:44.171Z,45.15
2018-02-21T06:49:11.773Z,47.03
2018-02-21T06:51:39.333Z,51.67
2018-02-21T06:54:07.714Z,49.55
2018-02-21T06:56:38.199Z,46.85
2018-02-21T06:59:06.590Z,44.55
2018-02-21T07:01:34.132Z,46.90
2018-02-21T07:04:02.056Z,44.28
2018-02-21T07:06:30.367Z,48.03
2018-02-21T07:08:57.921Z,43.95
2018-02-21T07:11:26.479Z,44.08
2018-02-21T07:13:54.107Z,47.03
2018-02-21T07:16:21.665Z,42.55
2018-02-21T07:18:49.256Z,44.85
2018-02-21T07:21:17.651Z,48.65
2018-02-21T07:23:45.941Z,48.30
2018-02-21T07:26:13.487Z,48.83
2018-02-21T07:28:41.104Z,46.58
2018-02-21T07:31:09.582Z,43.95
2018-02-21T07:33:37.161Z,41.95
2018-02-21T07:36:05.475Z,47.88
2018-02-21T07:38:33.080Z,44.05
2018-02-21T07:41:00.651Z,41.97
2018-02-21T07:43:28.282Z,46.95
2018-02-21T07:45:55.824Z,43.80
2018-02-21T07:48:23.402Z,46.30
2018-02-21T07:50:50.941Z,47.80
2018-02-21T07:53:18.532Z,45.20
2018-02-21T07:55:47.039Z,44.55
2018-02-21T07:58:16.063Z,46.28
2018-02-21T08:00:43.698Z,41.00
2018-02-21T08:03:11.301Z,47.17
2018-02-21T08:05:39.610Z,46.55
2018-02-21T08:08:07.224Z,43.97
2018-02-21T08:10:35.730Z,42.65
2018-02-21T08:13:03.395Z,49.65
2018-02-21T08:15:30.947Z,43.50
2018-02-21T08:17:58.496Z,43.03
2018-02-21T08:20:26.097Z,44.88
2018-02-21T08:22:53.766Z,43.72
2018-02-21T08:25:21.388Z,45.80
2018-02-21T08:27:48.971Z,46.13
2018-02-21T08:30:17.100Z,44.03
2018-02-21T08:32:44.677Z,45.85
2018-02-21T08:35:13.154Z,48.33
2018-02-21T08:37:40.738Z,47.00
2018-02-21T08:40:08.348Z,45.78
2018-02-21T08:42:37.649Z,45.50
2018-02-21T08:45:05.960Z,43.42
2018-02-21T08:47:33.612Z,44.65
2018-02-21T08:50:01.150Z,48.47
2018-02-21T08:52:29.480Z,47.55
2018-02-21T08:54:57.799Z,48.03
2018-02-21T08:57:26.162Z,46.70
2018-02-21T08:59:53.907Z,47.58
2018-02-21T09:02:21.502Z,49.60
2018-02-21T09:04:50.053Z,48.58
2018-02-21T09:07:18.939Z,46.45
2018-02-21T09:09:46.938Z,47.35
2018-02-21T09:12:16.015Z,47.33
2018-02-21T09:14:43.592Z,46.60
2018-02-21T09:17:11.185Z,48.78
2018-02-21T09:19:38.768Z,48.17
2018-02-21T09:22:06.379Z,47.53
2018-02-21T09:24:33.941Z,47.28
2018-02-21T09:27:01.529Z,48.85
2018-02-21T09:29:29.939Z,47.05
2018-02-21T09:31:57.525Z,49.65
2018-02-21T09:34:25.094Z,47.15
2018-02-21T09:36:52.721Z,46.17
2018-02-21T09:39:20.301Z,48.35
2018-02-21T09:41:48.705Z,47.90
2018-02-21T09:44:16.820Z,47.28
2018-02-21T09:46:46.130Z,50.42
2018-02-21T09:49:13.792Z,50.33
2018-02-21T09:51:41.388Z,40.15
2018-02-21T09:54:08.996Z,47.30
2018-02-21T09:56:36.574Z,44.38
2018-02-21T09:59:04.135Z,41.85
2018-02-21T10:01:31.705Z,50.58
2018-02-21T10:03:59.271Z,50.40
2018-02-21T10:06:26.863Z,48.72
2018-02-21T10:08:54.406Z,48.13
2018-02-21T10:11:22.756Z,49.87
2018-02-21T10:13:50.328Z,47.20
2018-02-21T10:16:19.662Z,47.77
2018-02-21T10:18:47.962Z,48.07
2018-02-21T10:21:15.899Z,48.00
2018-02-21T10:23:43.506Z,46.80
2018-02-21T10:26:11.090Z,42.03
2018-02-21T10:28:38.667Z,49.13
2018-02-21T10:31:06.307Z,45.55
2018-02-21T10:33:34.640Z,48.60
2018-02-21T10:36:03.226Z,45.63
2018-02-21T10:38:30.786Z,45.72
2018-02-21T10:40:59.175Z,41.60
2018-02-21T10:43:26.744Z,44.92
2018-02-21T10:45:54.304Z,45.30
2018-02-21T10:48:21.879Z,48.37
2018-02-21T10:50:50.244Z,49.37
2018-02-21T10:53:19.545Z,43.23
2018-02-21T10:55:47.976Z,44.20
2018-02-21T10:58:16.483Z,44.30
2018-02-21T11:00:49.640Z,48.87
2018-02-21T11:03:18.100Z,47.43
2018-02-21T11:05:48.355Z,48.63
2018-02-21T11:08:16.712Z,46.60
2018-02-21T11:10:46.899Z,48.20
2018-02-21T11:13:14.485Z,45.77
2018-02-21T11:15:42.040Z,46.57
2018-02-21T11:18:10.563Z,44.60
2018-02-21T11:20:38.108Z,41.67
2018-02-21T11:23:05.727Z,40.50
2018-02-21T11:25:34.079Z,45.50
2018-02-21T11:28:01.647Z,42.87
2018-02-21T11:30:29.226Z,42.60
2018-02-21T11:32:56.869Z,43.90
2018-02-21T11:35:24.439Z,43.27
2018-02-21T11:37:52.842Z,42.23
2018-02-21T11:40:21.203Z,44.87
2018-02-21T11:42:49.554Z,42.43
2018-02-21T11:45:17.889Z,45.07
2018-02-21T11:47:45.782Z,42.70
2018-02-21T11:50:13.417Z,41.50
2018-02-21T11:52:41.121Z,47.27
2018-02-21T11:55:08.707Z,45.73
2018-02-21T11:57:36.431Z,38.60
2018-02-21T12:00:04.068Z,42.27
2018-02-21T12:02:31.730Z,42.97
2018-02-21T12:04:59.361Z,47.07
2018-02-21T12:07:27.771Z,48.45
2018-02-21T12:09:55.427Z,49.50
2018-02-21T12:12:24.018Z,43.80
2018-02-21T12:14:51.710Z,42.80
2018-02-21T12:17:19.394Z,44.87
2018-02-21T12:19:47.869Z,45.33
2018-02-21T12:22:22.337Z,46.03
2018-02-21T12:24:52.570Z,46.13
2018-02-21T12:27:20.190Z,47.30
2018-02-21T12:29:48.514Z,44.37
2018-02-21T12:32:17.497Z,45.80
2018-02-21T12:34:45.141Z,49.40
2018-02-21T12:37:12.724Z,44.60
2018-02-21T12:39:41.048Z,41.67
2018-02-21T12:42:09.895Z,42.47
2018-02-21T12:44:37.436Z,45.40
2018-02-21T12:47:05.106Z,44.60
2018-02-21T12:49:32.642Z,45.77
2018-02-21T12:52:00.241Z,42.20
2018-02-21T12:54:28.549Z,41.93
2018-02-21T12:56:57.347Z,47.05
2018-02-21T12:59:25.677Z,45.08
2018-02-21T13:01:53.311Z,41.07
2018-02-21T13:04:20.886Z,41.70
2018-02-21T13:06:49.345Z,41.03
2018-02-21T13:09:17.832Z,43.28
2018-02-21T13:11:46.167Z,47.47
2018-02-21T13:14:13.794Z,45.20
2018-02-21T13:16:42.135Z,46.17
2018-02-21T13:19:10.683Z,43.97
2018-02-21T13:21:38.266Z,43.93
2018-02-21T13:24:05.837Z,44.53
2018-02-21T13:26:34.351Z,37.43
2018-02-21T13:29:01.892Z,38.57
2018-02-21T13:31:29.485Z,38.80
2018-02-21T13:33:57.066Z,39.07
2018-02-21T13:36:24.603Z,42.70
2018-02-21T13:38:52.175Z,40.60
2018-02-21T13:41:19.788Z,39.80
2018-02-21T13:43:48.243Z,41.60
2018-02-21T13:46:16.695Z,36.13
2018-02-21T13:48:44.263Z,44.03
2018-02-21T13:51:12.720Z,45.17
2018-02-21T13:53:40.329Z,40.70
2018-02-21T13:56:08.668Z,40.90
2018-02-21T13:58:37.978Z,39.17
2018-02-21T14:01:06.366Z,40.90
2018-02-21T14:03:33.931Z,36.47
2018-02-21T14:06:01.520Z,40.90
2018-02-21T14:08:30.193Z,39.00
2018-02-21T14:10:58.502Z,41.88
2018-02-21T14:13:26.047Z,41.33
2018-02-21T14:15:53.898Z,41.80
2018-02-21T14:18:23.414Z,44.73
2018-02-21T14:20:50.983Z,42.60
2018-02-21T14:23:18.590Z,44.50
2018-02-21T14:25:46.861Z,44.60
2018-02-21T14:28:15.853Z,46.33
2018-02-21T14:30:43.509Z,45.07
2018-02-21T14:33:11.088Z,46.97
2018-02-21T14:35:39.660Z,49.83
2018-02-21T14:38:07.244Z,50.07
2018-02-21T14:40:34.785Z,51.17
2018-02-21T14:43:02.351Z,48.00
2018-02-21T14:45:30.821Z,48.67
2018-02-21T14:47:58.377Z,52.33
2018-02-21T14:50:26.718Z,50.73
2018-02-21T14:52:54.304Z,51.10
2018-02-21T14:55:22.663Z,50.03
2018-02-21T14:57:50.235Z,50.85
2018-02-21T15:00:19.009Z,49.70
2018-02-21T15:02:47.294Z,51.90
2018-02-21T15:05:14.922Z,48.53
2018-02-21T15:07:42.553Z,50.27
2018-02-21T15:10:10.174Z,51.23
2018-02-21T15:12:37.735Z,50.60
2018-02-21T15:15:06.264Z,49.80
2018-02-21T15:17:34.577Z,50.60
2018-02-21T15:20:04.118Z,52.37
2018-02-21T15:22:32.439Z,50.00
2018-02-21T15:25:00.624Z,49.90
2018-02-21T15:27:28.959Z,51.13
2018-02-21T15:29:56.568Z,48.17
2018-02-21T15:32:25.090Z,47.30
2018-02-21T15:34:54.220Z,46.55
2018-02-21T15:37:22.540Z,52.08
2018-02-21T15:39:51.692Z,48.60
2018-02-21T15:42:21.249Z,46.27
2018-02-21T15:44:51.684Z,47.97
2018-02-21T15:47:24.487Z,46.78
2018-02-21T15:49:55.212Z,48.00
2018-02-21T15:52:23.378Z,47.65
2018-02-21T15:54:51.203Z,48.97
2018-02-21T15:57:18.780Z,47.72
2018-02-21T15:59:46.958Z,47.33
2018-02-21T16:02:18.371Z,50.75
2018-02-21T16:04:46.784Z,43.40
2018-02-21T16:07:15.155Z,48.92
2018-02-21T16:09:44.332Z,45.67
2018-02-21T16:12:12.687Z,46.70
2018-02-21T16:14:40.257Z,46.08
2018-02-21T16:17:09.594Z,48.40
2018-02-21T16:19:37.238Z,45.10
2018-02-21T16:22:04.837Z,47.42
2018-02-21T16:24:32.427Z,47.20
2018-02-21T16:27:00.126Z,44.13
2018-02-21T16:29:27.750Z,45.22
2018-02-21T16:31:55.372Z,46.35
2018-02-21T16:34:22.940Z,44.97
2018-02-21T16:36:50.660Z,48.95
2018-02-21T16:39:18.980Z,47.30
2018-02-21T16:41:46.861Z,45.83
2018-02-21T16:44:14.474Z,45.75
2018-02-21T16:46:42.048Z,47.72
2018-02-21T16:49:09.658Z,45.15
2018-02-21T16:51:38.184Z,45.83
2018-02-21T16:54:11.336Z,45.63
2018-02-21T16:56:38.912Z,47.72
2018-02-21T16:59:07.642Z,47.95
2018-02-21T17:01:35.978Z,45.45
2018-02-21T17:04:03.720Z,47.42
2018-02-21T17:06:31.341Z,47.92
2018-02-21T17:08:59.289Z,42.97
2018-02-21T17:11:27.641Z,45.60
2018-02-21T17:13:55.284Z,45.97
2018-02-21T17:16:23.704Z,43.53
2018-02-21T17:18:51.350Z,48.35
2018-02-21T17:21:19.057Z,45.30
2018-02-21T17:23:47.710Z,40.78
2018-02-21T17:26:16.802Z,41.22
2018-02-21T17:28:46.997Z,40.80
2018-02-21T17:31:18.063Z,43.22
2018-02-21T17:33:46.928Z,43.20
2018-02-21T17:36:14.553Z,40.67
2018-02-21T17:38:42.972Z,41.03
2018-02-21T17:41:16.749Z,40.92
2018-02-21T17:43:45.714Z,44.47
2018-02-21T17:46:13.333Z,44.40
2018-02-21T17:48:41.018Z,40.80
2018-02-21T17:51:09.411Z,43.35
2018-02-21T17:53:36.992Z,43.65
2018-02-21T17:56:05.534Z,44.10
2018-02-21T17:58:33.109Z,44.13
2018-02-21T18:01:01.644Z,41.78
2018-02-21T18:03:29.223Z,43.45
2018-02-21T18:05:56.832Z,46.25
2018-02-21T18:08:27.129Z,44.28
2018-02-21T18:10:54.770Z,43.15
2018-02-21T18:13:22.340Z,41.83
2018-02-21T18:15:50.750Z,43.83
2018-02-21T18:18:18.344Z,44.40
2018-02-21T18:20:47.608Z,52.78
2018-02-21T18:23:16.437Z,45.65
2018-02-21T18:25:44.060Z,48.25
2018-02-21T18:28:11.639Z,43.38
2018-02-21T18:30:40.249Z,44.10
2018-02-21T18:33:07.852Z,47.22
2018-02-21T18:35:35.454Z,48.15
2018-02-21T18:38:03.028Z,53.35
2018-02-21T18:40:30.625Z,49.45
2018-02-21T18:42:58.207Z,45.15
2018-02-21T18:45:25.881Z,50.67
2018-02-21T18:47:56.172Z,49.58
2018-02-21T18:50:23.837Z,50.80
2018-02-21T18:52:51.454Z,48.13
2018-02-21T18:55:19.076Z,50.28
2018-02-21T18:57:47.401Z,46.33
2018-02-21T19:00:18.474Z,46.58
2018-02-21T19:02:46.816Z,46.78
2018-02-21T19:05:14.468Z,45.25
2018-02-21T19:07:42.103Z,46.85
2018-02-21T19:10:09.707Z,49.38
2018-02-21T19:12:40.880Z,48.78
2018-02-21T19:15:08.438Z,49.75
2018-02-21T19:17:36.060Z,46.85
2018-02-21T19:20:03.659Z,47.75
2018-02-21T19:22:32.036Z,51.70
2018-02-21T19:25:00.377Z,49.55
2018-02-21T19:27:27.987Z,50.20
2018-02-21T19:29:55.729Z,49.03
2018-02-21T19:32:23.325Z,48.85
2018-02-21T19:34:50.921Z,49.42
2018-02-21T19:37:23.778Z,51.17
2018-02-21T19:39:52.318Z,52.28
2018-02-21T19:42:23.953Z,51.17
2018-02-21T19:44:52.304Z,50.55
2018-02-21T19:47:22.660Z,50.95
2018-02-21T19:49:50.915Z,53.03
2018-02-21T19:52:19.460Z,52.38
2018-02-21T19:54:48.229Z,52.25
2018-02-21T19:57:16.437Z,52.50
2018-02-21T19:59:44.074Z,45.47
2018-02-21T20:02:12.486Z,47.72
2018-02-21T20:04:43.575Z,44.17
2018-02-21T20:07:11.485Z,47.03
2018-02-21T20:09:40.289Z,44.50
2018-02-21T20:12:07.875Z,42.55
2018-02-21T20:14:35.479Z,42.40
2018-02-21T20:17:03.945Z,45.25
2018-02-21T20:19:32.326Z,42.55
2018-02-21T20:22:00.747Z,40.55
2018-02-21T20:24:28.680Z,42.92
2018-02-21T20:26:56.624Z,40.97
2018-02-21T20:29:24.293Z,42.50
2018-02-21T20:31:51.943Z,41.35
2018-02-21T20:34:20.330Z,40.12
2018-02-21T20:36:48.865Z,40.63
2018-02-21T20:39:18.097Z,41.05
2018-02-21T20:41:47.834Z,42.72
2018-02-21T20:44:17.146Z,44.15
2018-02-21T20:46:46.600Z,43.28
2018-02-21T20:49:14.164Z,42.97
2018-02-21T20:51:41.808Z,43.50
2018-02-21T20:54:10.106Z,44.92
2018-02-21T20:56:39.034Z,46.17
2018-02-21T20:59:11.798Z,46.72
2018-02-21T21:01:39.628Z,48.70
2018-02-21T21:04:12.864Z,49.90
2018-02-21T21:06:41.228Z,51.63
2018-02-21T21:09:09.566Z,52.83
2018-02-21T21:11:37.182Z,48.55
2018-02-21T21:14:04.768Z,47.22
2018-02-21T21:19:24.984Z,51.85
2018-02-21T21:21:52.576Z,51.95
2018-02-21T21:24:25.405Z,52.35
2018-02-21T21:26:53.750Z,52.38
2018-02-21T21:29:21.323Z,56.13
2018-02-21T21:31:49.842Z,51.83
2018-02-21T21:34:19.267Z,51.37
2018-02-21T21:36:47.765Z,54.75
2018-02-21T21:39:19.043Z,53.08
2018-02-21T21:41:47.005Z,56.78
2018-02-21T21:44:14.564Z,46.45
2018-02-21T21:46:43.117Z,54.03
2018-02-21T21:49:11.461Z,51.95
2018-02-21T21:51:39.065Z,53.00
2018-02-21T21:54:06.656Z,53.40
2018-02-21T21:56:34.247Z,55.42
2018-02-21T21:59:01.793Z,52.03
2018-02-21T22:01:30.191Z,51.17
2018-02-21T22:03:57.760Z,52.72
2018-02-21T22:06:25.363Z,51.72
2018-02-21T22:08:53.675Z,46.15
2018-02-21T22:11:21.303Z,53.53
2018-02-21T22:13:48.917Z,52.60
2018-02-21T22:16:18.145Z,53.65
2018-02-21T22:18:46.998Z,50.30
2018-02-21T22:21:14.587Z,50.75
2018-02-21T22:23:43.098Z,52.33
2018-02-21T22:26:11.405Z,53.95
2018-02-21T22:28:39.821Z,48.72
2018-02-21T22:31:07.430Z,51.78
2018-02-21T22:33:35.042Z,51.88
2018-02-21T22:36:03.368Z,51.08
2018-02-21T22:38:30.993Z,54.20
2018-02-21T22:40:59.604Z,53.80
2018-02-21T22:43:27.184Z,47.30
2018-02-21T22:45:56.072Z,46.60
2018-02-21T22:48:23.627Z,50.38
2018-02-21T22:50:51.241Z,49.63
2018-02-21T22:53:18.778Z,51.03
2018-02-21T22:55:47.679Z,51.83
2018-02-21T22:58:17.010Z,48.47
2018-02-21T23:00:44.595Z,49.72
2018-02-21T23:03:14.218Z,51.33
2018-02-21T23:05:42.797Z,50.42
2018-02-21T23:08:10.388Z,48.83
2018-02-21T23:10:37.946Z,49.92
2018-02-21T23:13:05.513Z,47.88
2018-02-21T23:15:33.856Z,48.67
2018-02-21T23:18:01.445Z,48.38
2018-02-21T23:20:29.796Z,43.83
2018-02-21T23:22:57.365Z,46.45
2018-02-21T23:25:25.872Z,43.78
2018-02-21T23:27:53.422Z,43.50
2018-02-21T23:30:22.956Z,45.80
2018-02-21T23:32:52.243Z,46.63
2018-02-21T23:35:20.641Z,44.35
2018-02-21T23:37:48.950Z,45.10
2018-02-21T23:40:16.920Z,41.88
2018-02-21T23:42:45.921Z,42.83
2018-02-21T23:45:13.525Z,43.70
2018-02-21T23:47:41.902Z,44.17
2018-02-21T23:50:09.664Z,38.33
2018-02-21T23:52:38.220Z,40.70
2018-02-21T23:55:05.773Z,36.33
2018-02-21T23:57:33.350Z,35.63
